General Aviation Weather

Text Reports

Enter one or more of the following location identifiers separated by a space:

Zip Code, Four-Character ICAO or Three-Character IATA airport codes.

METAR - Aviation Routine Weather Report
KBDH - Willmar, Minnesota
Updated at 4:55 PM GMT on September 30, 2014 (11:55 AM CDT):
METAR KBDH 301655Z AUTO 11016G24KT 10SM SCT014 10/05 A2995 RMK AO2
TAF - Terminal Area Forecast
KBDH - Willmar, Minnesota
Updated at 4:55 PM GMT on September 30, 2014 (11:55 AM CDT):
No TAF is currently available for this location.
Decoded:
No decoded TAF is available.
PIREP - Pilot Weather Report
KBDH - Willmar, Minnesota
Updated at 4:55 PM GMT on September 30, 2014 (11:55 AM CDT):
No PIREP is currently available for this location.
AIRMET - Airmens Meteorological Information
KBDH - Willmar, Minnesota
Updated at 4:55 PM GMT on September 30, 2014 (11:55 AM CDT):
No AIRMET is currently available for this location.
SIGMET - Significant Meteorological Information
KBDH - Willmar, Minnesota
Updated at 4:55 PM GMT on September 30, 2014 (11:55 AM CDT):
No SIGMET is currently available for this location.
NOTAM - Notice to Airmen
KBDH - Willmar, Minnesota
Updated at 4:55 PM GMT on September 30, 2014 (11:55 AM CDT):
No NOTAM is currently available for this location.
Forecast Area
KBDH - Willmar, Minnesota
Updated at 4:55 PM GMT on September 30, 2014 (11:55 AM CDT):
No NOTAM is currently available for this location.
Aviation Weather Maps